createdAt,value
2018-02-20T00:04:59.812Z,18.97
2018-02-20T00:07:27.872Z,18.33
2018-02-20T00:09:55.410Z,20.00
2018-02-20T00:12:23.736Z,18.53
2018-02-20T00:14:51.253Z,17.57
2018-02-20T00:17:19.561Z,19.60
2018-02-20T00:19:47.196Z,18.60
2018-02-20T00:22:15.801Z,18.07
2018-02-20T00:24:43.465Z,17.20
2018-02-20T00:27:11.515Z,19.17
2018-02-20T00:29:39.108Z,19.00
2018-02-20T00:32:06.682Z,18.03
2018-02-20T00:34:34.240Z,19.43
2018-02-20T00:37:01.765Z,20.23
2018-02-20T00:39:29.295Z,18.87
2018-02-20T00:41:57.626Z,19.77
2018-02-20T00:44:25.154Z,20.53
2018-02-20T00:46:52.688Z,20.43
2018-02-20T00:49:20.265Z,20.60
2018-02-20T00:51:47.847Z,20.27
2018-02-20T00:54:15.521Z,19.47
2018-02-20T00:56:43.136Z,19.80
2018-02-20T00:59:10.948Z,20.67
2018-02-20T01:01:38.632Z,20.37
2018-02-20T01:04:06.205Z,22.30
2018-02-20T01:06:33.737Z,21.27
2018-02-20T01:09:01.281Z,19.97
2018-02-20T01:11:29.079Z,20.87
2018-02-20T01:13:56.604Z,22.10
2018-02-20T01:16:24.134Z,21.07
2018-02-20T01:18:52.532Z,21.10
2018-02-20T01:21:20.119Z,21.23
2018-02-20T01:23:47.749Z,21.33
2018-02-20T01:26:15.721Z,20.43
2018-02-20T01:28:43.313Z,19.80
2018-02-20T01:31:11.867Z,20.33
2018-02-20T01:33:39.501Z,20.57
2018-02-20T01:36:07.214Z,20.77
2018-02-20T01:38:34.783Z,19.73
2018-02-20T01:41:02.333Z,20.30
2018-02-20T01:43:29.894Z,20.77
2018-02-20T01:45:57.429Z,21.13
2018-02-20T01:48:24.976Z,21.77
2018-02-20T01:51:04.417Z,20.50
2018-02-20T01:53:32.736Z,21.33
2018-02-20T01:56:00.270Z,20.37
2018-02-20T01:58:27.801Z,21.67
2018-02-20T02:00:56.136Z,19.87
2018-02-20T02:03:24.057Z,20.37
2018-02-20T02:05:51.617Z,20.87
2018-02-20T02:08:20.110Z,20.53
2018-02-20T02:10:47.998Z,21.50
2018-02-20T02:13:15.608Z,21.67
2018-02-20T02:15:44.082Z,22.07
2018-02-20T02:18:11.845Z,21.57
2018-02-20T02:20:39.632Z,21.07
2018-02-20T02:23:08.744Z,20.67
2018-02-20T02:25:36.334Z,21.97
2018-02-20T02:28:03.925Z,20.83
2018-02-20T02:30:31.717Z,21.03
2018-02-20T02:32:59.246Z,21.20
2018-02-20T02:35:26.779Z,20.83
2018-02-20T02:37:54.321Z,20.20
2018-02-20T02:40:21.897Z,20.60
2018-02-20T02:42:49.819Z,20.33
2018-02-20T02:45:18.205Z,21.67
2018-02-20T02:47:46.585Z,22.33
2018-02-20T02:50:15.009Z,22.03
2018-02-20T02:52:42.990Z,21.67
2018-02-20T02:55:10.742Z,22.17
2018-02-20T02:57:38.661Z,21.63
2018-02-20T03:00:07.042Z,21.37
2018-02-20T03:02:35.348Z,21.10
2018-02-20T03:05:02.876Z,22.60
2018-02-20T03:07:30.413Z,22.67
2018-02-20T03:09:57.948Z,22.73
2018-02-20T03:12:25.489Z,20.97
2018-02-20T03:14:53.037Z,21.23
2018-02-20T03:17:21.377Z,21.80
2018-02-20T03:19:49.106Z,21.00
2018-02-20T03:22:16.784Z,21.53
2018-02-20T03:24:44.452Z,21.63
2018-02-20T03:27:12.300Z,19.83
2018-02-20T03:29:40.489Z,21.80
2018-02-20T03:32:09.520Z,23.30
2018-02-20T03:34:38.260Z,20.80
2018-02-20T03:37:07.353Z,21.50
2018-02-20T03:39:35.721Z,22.00
2018-02-20T03:42:03.292Z,21.57
2018-02-20T03:44:30.822Z,22.63
2018-02-20T03:46:59.135Z,22.73
2018-02-20T03:49:26.669Z,21.60
2018-02-20T03:51:54.270Z,22.73
2018-02-20T03:54:21.893Z,22.77
2018-02-20T03:56:49.590Z,22.83
2018-02-20T03:59:17.264Z,22.13
2018-02-20T04:01:44.903Z,22.83
2018-02-20T04:04:13.075Z,23.17
2018-02-20T04:06:40.838Z,25.03
2018-02-20T04:09:09.423Z,25.23
2018-02-20T04:11:37.082Z,26.80
2018-02-20T04:14:05.444Z,26.30
2018-02-20T04:16:32.997Z,26.47
2018-02-20T04:19:01.296Z,25.80
2018-02-20T04:21:28.835Z,25.40
2018-02-20T04:23:57.144Z,25.93
2018-02-20T04:26:25.211Z,26.13
2018-02-20T04:28:53.046Z,24.93
2018-02-20T04:31:21.407Z,24.60
2018-02-20T04:33:49.120Z,24.47
2018-02-20T04:36:16.761Z,24.70
2018-02-20T04:38:44.363Z,23.13
2018-02-20T04:41:13.977Z,23.90
2018-02-20T04:43:42.798Z,21.87
2018-02-20T04:46:11.324Z,21.27
2018-02-20T04:48:39.104Z,23.30
2018-02-20T04:51:06.689Z,23.20
2018-02-20T04:53:35.025Z,21.10
2018-02-20T04:56:02.578Z,22.47
2018-02-20T04:58:30.117Z,24.00
2018-02-20T05:00:58.429Z,23.60
2018-02-20T05:03:26.294Z,23.57
2018-02-20T05:05:54.005Z,22.63
2018-02-20T05:08:21.567Z,24.17
2018-02-20T05:10:49.874Z,22.93
2018-02-20T05:13:17.565Z,23.43
2018-02-20T05:15:45.171Z,22.23
2018-02-20T05:18:13.688Z,22.50
2018-02-20T05:20:41.924Z,24.30
2018-02-20T05:23:09.677Z,23.70
2018-02-20T05:25:37.417Z,23.00
2018-02-20T05:28:04.977Z,24.13
2018-02-20T05:30:32.616Z,22.87
2018-02-20T05:33:00.699Z,23.63
2018-02-20T05:35:29.061Z,23.73
2018-02-20T05:37:56.596Z,23.60
2018-02-20T05:40:24.910Z,22.90
2018-02-20T05:42:52.458Z,22.00
2018-02-20T05:45:19.987Z,24.07
2018-02-20T05:47:48.613Z,22.33
2018-02-20T05:50:16.588Z,23.77
2018-02-20T05:52:44.867Z,25.50
2018-02-20T05:55:12.498Z,24.23
2018-02-20T05:57:40.257Z,24.33
2018-02-20T06:00:07.892Z,21.73
2018-02-20T06:02:36.204Z,23.23
2018-02-20T06:05:04.081Z,23.93
2018-02-20T06:07:32.162Z,24.57
2018-02-20T06:09:59.836Z,24.00
2018-02-20T06:12:28.237Z,25.67
2018-02-20T06:14:57.290Z,28.40
2018-02-20T06:17:25.092Z,28.07
2018-02-20T06:19:52.632Z,27.03
2018-02-20T06:22:20.158Z,26.23
2018-02-20T06:24:48.486Z,25.07
2018-02-20T06:27:16.163Z,24.60
2018-02-20T06:29:44.718Z,25.63
2018-02-20T06:32:12.507Z,26.47
2018-02-20T06:34:40.350Z,25.20
2018-02-20T06:37:08.111Z,25.33
2018-02-20T06:39:35.758Z,24.83
2018-02-20T06:42:03.348Z,23.97
2018-02-20T06:44:30.872Z,23.90
2018-02-20T06:46:58.420Z,25.83
2018-02-20T06:49:26.709Z,23.27
2018-02-20T06:51:54.269Z,25.20
2018-02-20T06:54:21.853Z,25.30
2018-02-20T06:56:49.812Z,24.47
2018-02-20T06:59:17.693Z,25.07
2018-02-20T07:01:45.274Z,23.70
2018-02-20T07:04:12.896Z,24.70
2018-02-20T07:06:40.446Z,24.20
2018-02-20T07:09:09.081Z,23.93
2018-02-20T07:11:36.737Z,24.37
2018-02-20T07:14:04.271Z,26.17
2018-02-20T07:16:33.169Z,24.87
2018-02-20T07:19:00.697Z,25.10
2018-02-20T07:21:29.024Z,24.50
2018-02-20T07:23:56.673Z,23.27
2018-02-20T07:26:24.544Z,23.60
2018-02-20T07:28:52.247Z,23.27
2018-02-20T07:31:20.686Z,24.20
2018-02-20T07:33:48.437Z,24.37
2018-02-20T07:36:16.117Z,25.33
2018-02-20T07:38:43.977Z,25.57
2018-02-20T07:41:12.151Z,25.53
2018-02-20T07:43:40.030Z,27.77
2018-02-20T07:46:07.685Z,26.93
2018-02-20T07:48:35.323Z,24.77
2018-02-20T07:51:02.938Z,22.20
2018-02-20T07:53:30.475Z,20.87
2018-02-20T07:55:58.009Z,23.77
2018-02-20T07:58:25.542Z,19.13
2018-02-20T08:00:53.859Z,20.50
2018-02-20T08:03:21.661Z,20.53
2018-02-20T08:05:50.502Z,20.30
2018-02-20T08:08:18.384Z,20.77
2018-02-20T08:10:46.106Z,21.23
2018-02-20T08:13:14.633Z,22.00
2018-02-20T08:15:42.269Z,21.03
2018-02-20T08:18:09.830Z,21.70
2018-02-20T08:20:38.301Z,23.50
2018-02-20T08:23:05.886Z,21.17
2018-02-20T08:25:33.442Z,22.57
2018-02-20T08:28:00.967Z,22.47
2018-02-20T08:30:28.505Z,22.17
2018-02-20T08:32:56.030Z,22.50
2018-02-20T08:35:23.570Z,22.50
2018-02-20T08:37:51.269Z,24.67
2018-02-20T08:40:19.224Z,23.77
2018-02-20T08:42:47.300Z,22.17
2018-02-20T08:45:14.877Z,23.03
2018-02-20T08:47:42.826Z,22.30
2018-02-20T08:50:10.874Z,22.50
2018-02-20T08:52:39.281Z,22.30
2018-02-20T08:55:06.818Z,22.40
2018-02-20T08:57:34.472Z,20.90
2018-02-20T09:00:02.890Z,21.43
2018-02-20T09:02:30.434Z,22.77
2018-02-20T09:04:57.965Z,24.27
2018-02-20T09:07:26.254Z,23.03
2018-02-20T09:09:53.860Z,24.47
2018-02-20T09:12:21.530Z,22.67
2018-02-20T09:14:49.111Z,23.23
2018-02-20T09:17:16.797Z,23.10
2018-02-20T09:19:44.568Z,22.70
2018-02-20T09:22:12.252Z,22.83
2018-02-20T09:24:39.793Z,24.17
2018-02-20T09:27:07.370Z,23.10
2018-02-20T09:29:34.905Z,23.53
2018-02-20T09:32:03.312Z,23.70
2018-02-20T09:34:30.856Z,23.53
2018-02-20T09:36:58.389Z,22.60
2018-02-20T09:39:26.689Z,22.57
2018-02-20T09:41:54.220Z,22.33
2018-02-20T09:44:21.796Z,23.17
2018-02-20T09:46:50.126Z,23.97
2018-02-20T09:49:18.716Z,22.37
2018-02-20T09:51:46.381Z,23.30
2018-02-20T09:54:14.164Z,22.13
2018-02-20T09:56:42.583Z,23.40
2018-02-20T09:59:10.117Z,23.43
2018-02-20T10:01:38.500Z,23.10
2018-02-20T10:04:06.915Z,22.40
2018-02-20T10:06:34.577Z,23.63
2018-02-20T10:09:02.128Z,25.13
2018-02-20T10:11:29.652Z,24.20
2018-02-20T10:13:57.196Z,24.40
2018-02-20T10:16:24.724Z,24.83
2018-02-20T10:18:52.285Z,25.77
2018-02-20T10:21:20.094Z,23.50
2018-02-20T10:23:47.907Z,23.53
2018-02-20T10:26:15.493Z,24.37
2018-02-20T10:28:44.096Z,22.73
2018-02-20T10:31:11.636Z,25.13
2018-02-20T10:33:39.954Z,24.10
2018-02-20T10:36:08.665Z,23.80
2018-02-20T10:38:36.248Z,23.03
2018-02-20T10:41:03.782Z,22.87
2018-02-20T10:43:31.317Z,22.77
2018-02-20T10:45:59.599Z,23.50
2018-02-20T10:48:27.901Z,20.87
2018-02-20T10:50:55.418Z,22.13
2018-02-20T10:53:24.503Z,21.53
2018-02-20T10:55:52.241Z,21.93
2018-02-20T10:58:19.800Z,22.63
2018-02-20T11:00:47.848Z,21.87
2018-02-20T11:03:15.497Z,20.73
2018-02-20T11:05:43.305Z,17.80
2018-02-20T11:08:10.836Z,22.57
2018-02-20T11:10:38.426Z,22.67
2018-02-20T11:13:06.126Z,24.67
2018-02-20T11:15:33.698Z,24.50
2018-02-20T11:20:36.003Z,25.93
2018-02-20T11:23:03.948Z,27.23
2018-02-20T11:25:31.496Z,25.67
2018-02-20T11:27:59.027Z,28.07
2018-02-20T11:30:26.578Z,25.13
2018-02-20T11:32:54.186Z,23.97
2018-02-20T11:35:22.868Z,27.17
2018-02-20T11:37:50.392Z,24.33
2018-02-20T11:40:18.128Z,25.97
2018-02-20T11:42:45.717Z,27.17
2018-02-20T11:45:13.698Z,26.33
2018-02-20T11:47:41.258Z,25.80
2018-02-20T11:50:08.783Z,27.13
2018-02-20T11:52:36.339Z,26.63
2018-02-20T11:55:04.704Z,27.30
2018-02-20T11:57:32.988Z,25.77
2018-02-20T12:00:00.592Z,26.37
2018-02-20T12:02:28.100Z,27.10
2018-02-20T12:04:56.456Z,26.87
2018-02-20T12:07:24.041Z,27.17
2018-02-20T12:09:51.730Z,26.70
2018-02-20T12:12:19.392Z,20.00
2018-02-20T12:14:46.938Z,26.30
2018-02-20T12:17:14.715Z,26.67
2018-02-20T12:19:42.264Z,28.00
2018-02-20T12:22:10.127Z,29.37
2018-02-20T12:24:37.651Z,27.53
2018-02-20T12:27:05.497Z,26.37
2018-02-20T12:29:33.248Z,28.50
2018-02-20T12:32:00.769Z,28.93
2018-02-20T12:34:28.433Z,23.10
2018-02-20T12:36:56.077Z,25.03
2018-02-20T12:39:24.431Z,28.83
2018-02-20T12:41:51.965Z,27.40
2018-02-20T12:44:19.569Z,27.60
2018-02-20T12:46:48.157Z,29.40
2018-02-20T12:49:15.761Z,30.03
2018-02-20T12:51:44.791Z,29.77
2018-02-20T12:54:13.336Z,29.60
2018-02-20T12:56:41.713Z,33.33
2018-02-20T12:59:09.284Z,29.83
2018-02-20T13:01:36.868Z,31.23
2018-02-20T13:04:05.177Z,31.00
2018-02-20T13:06:33.493Z,30.10
2018-02-20T13:09:01.086Z,27.87
2018-02-20T13:11:28.771Z,29.57
2018-02-20T13:13:57.080Z,28.73
2018-02-20T13:16:24.753Z,28.97
2018-02-20T13:18:52.419Z,30.03
2018-02-20T13:21:20.031Z,28.40
2018-02-20T13:23:47.648Z,29.53
2018-02-20T13:26:15.271Z,29.67
2018-02-20T13:28:43.598Z,28.03
2018-02-20T13:31:11.182Z,28.73
2018-02-20T13:33:38.742Z,30.37
2018-02-20T13:36:06.288Z,29.20
2018-02-20T13:38:33.829Z,28.27
2018-02-20T13:41:01.356Z,27.63
2018-02-20T13:43:28.925Z,29.70
2018-02-20T13:45:56.448Z,28.47
2018-02-20T13:48:24.052Z,27.20
2018-02-20T13:50:51.621Z,29.17
2018-02-20T13:53:19.554Z,29.00
2018-02-20T13:55:47.952Z,24.60
2018-02-20T13:58:16.318Z,27.97
2018-02-20T14:00:45.088Z,23.93
2018-02-20T14:03:14.755Z,27.40
2018-02-20T14:05:43.232Z,28.40
2018-02-20T14:08:10.856Z,28.57
2018-02-20T14:10:39.162Z,28.57
2018-02-20T14:13:06.725Z,27.60
2018-02-20T14:15:34.996Z,26.83
2018-02-20T14:18:02.533Z,26.27
2018-02-20T14:20:30.837Z,28.13
2018-02-20T14:22:58.377Z,29.10
2018-02-20T14:25:27.816Z,27.20
2018-02-20T14:27:55.366Z,28.70
2018-02-20T14:30:23.031Z,27.37
2018-02-20T14:32:50.582Z,28.13
2018-02-20T14:35:18.229Z,29.30
2018-02-20T14:37:45.818Z,28.70
2018-02-20T14:40:14.095Z,26.67
2018-02-20T14:42:41.627Z,23.07
2018-02-20T14:45:09.201Z,27.43
2018-02-20T14:47:36.738Z,29.13
2018-02-20T14:50:05.057Z,24.70
2018-02-20T14:52:32.594Z,28.47
2018-02-20T14:55:00.146Z,29.53
2018-02-20T14:57:27.697Z,28.07
2018-02-20T14:59:55.279Z,27.43
2018-02-20T15:02:22.852Z,26.20
2018-02-20T15:04:50.628Z,29.37
2018-02-20T15:07:18.205Z,30.00
2018-02-20T15:09:46.554Z,28.73
2018-02-20T15:12:14.826Z,30.00
2018-02-20T15:14:42.443Z,24.53
2018-02-20T15:17:10.153Z,28.63
2018-02-20T15:19:37.693Z,28.97
2018-02-20T15:22:05.234Z,30.23
2018-02-20T15:24:33.555Z,29.97
2018-02-20T15:27:01.105Z,29.43
2018-02-20T15:29:28.643Z,27.70
2018-02-20T15:31:56.948Z,28.13
2018-02-20T15:34:24.469Z,30.70
2018-02-20T15:36:52.790Z,29.57
2018-02-20T15:39:20.410Z,28.57
2018-02-20T15:41:48.799Z,27.93
2018-02-20T15:44:16.379Z,23.07
2018-02-20T15:46:43.980Z,26.93
2018-02-20T15:49:11.632Z,27.60
2018-02-20T15:51:39.269Z,28.77
2018-02-20T15:54:06.805Z,29.90
2018-02-20T15:56:35.107Z,28.23
2018-02-20T15:59:02.657Z,27.40
2018-02-20T16:01:30.193Z,28.73
2018-02-20T16:03:58.929Z,28.87
2018-02-20T16:06:26.453Z,29.67
2018-02-20T16:08:53.979Z,28.47
2018-02-20T16:11:21.521Z,30.77
2018-02-20T16:13:49.234Z,29.63
2018-02-20T16:16:17.731Z,29.63
2018-02-20T16:18:45.333Z,28.43
2018-02-20T16:21:13.513Z,27.30
2018-02-20T16:23:41.062Z,30.63
2018-02-20T16:26:08.631Z,27.53
2018-02-20T16:28:36.168Z,30.50
2018-02-20T16:31:03.736Z,28.67
2018-02-20T16:33:31.409Z,29.23
2018-02-20T16:35:58.930Z,29.03
2018-02-20T16:38:26.679Z,28.13
2018-02-20T16:40:54.204Z,28.83
2018-02-20T16:43:21.757Z,29.43
2018-02-20T16:45:49.345Z,28.83
2018-02-20T16:48:17.746Z,28.53
2018-02-20T16:50:45.489Z,30.40
2018-02-20T16:53:13.282Z,32.93
2018-02-20T16:55:40.902Z,35.43
2018-02-20T16:58:08.492Z,33.77
2018-02-20T17:00:36.050Z,27.10
2018-02-20T17:03:03.609Z,31.90
2018-02-20T17:05:32.165Z,31.33
2018-02-20T17:08:00.781Z,32.27
2018-02-20T17:10:28.330Z,29.87
2018-02-20T17:12:56.820Z,28.83
2018-02-20T17:15:24.509Z,27.90
2018-02-20T17:17:52.185Z,27.27
2018-02-20T17:20:19.739Z,27.80
2018-02-20T17:22:47.388Z,31.33
2018-02-20T17:25:15.154Z,28.00
2018-02-20T17:27:42.907Z,28.23
2018-02-20T17:30:10.465Z,25.50
2018-02-20T17:32:37.985Z,28.07
2018-02-20T17:35:06.303Z,22.90
2018-02-20T17:37:33.849Z,23.13
2018-02-20T17:40:02.171Z,26.27
2018-02-20T17:42:29.794Z,24.60
2018-02-20T17:44:57.317Z,24.83
2018-02-20T17:47:24.858Z,25.00
2018-02-20T17:49:53.113Z,22.40
2018-02-20T17:52:20.797Z,24.27
2018-02-20T17:54:48.554Z,24.20
2018-02-20T17:57:16.395Z,24.97
2018-02-20T17:59:44.070Z,23.27
2018-02-20T18:02:12.141Z,26.10
2018-02-20T18:04:39.751Z,21.20
2018-02-20T18:07:08.068Z,22.87
2018-02-20T18:09:35.665Z,19.33
2018-02-20T18:12:03.301Z,20.00
2018-02-20T18:14:31.751Z,20.07
2018-02-20T18:17:00.029Z,19.37
2018-02-20T18:19:28.327Z,20.93
2018-02-20T18:21:56.549Z,17.67
2018-02-20T18:24:24.072Z,19.70
2018-02-20T18:26:51.638Z,16.13
2018-02-20T18:29:19.292Z,19.87
2018-02-20T18:31:48.409Z,21.10
2018-02-20T18:34:17.073Z,17.57
2018-02-20T18:36:44.754Z,21.47
2018-02-20T18:39:13.016Z,19.97
2018-02-20T18:41:40.904Z,20.67
2018-02-20T18:44:08.648Z,22.00
2018-02-20T18:46:36.188Z,21.70
2018-02-20T18:49:03.744Z,24.70
2018-02-20T18:51:31.335Z,20.93
2018-02-20T18:53:58.862Z,20.50
2018-02-20T18:56:27.541Z,20.53
2018-02-20T18:58:56.004Z,21.80
2018-02-20T19:01:24.426Z,21.53
2018-02-20T19:03:52.021Z,21.67
2018-02-20T19:06:19.656Z,21.17
2018-02-20T19:08:47.294Z,22.40
2018-02-20T19:11:16.256Z,20.23
2018-02-20T19:13:45.115Z,20.47
2018-02-20T19:16:12.794Z,22.03
2018-02-20T19:18:40.525Z,21.23
2018-02-20T19:21:08.153Z,21.00
2018-02-20T19:23:36.478Z,18.73
2018-02-20T19:26:04.041Z,22.20
2018-02-20T19:28:31.622Z,22.50
2018-02-20T19:31:00.687Z,20.93
2018-02-20T19:33:33.634Z,22.43
2018-02-20T19:36:01.374Z,22.80
2018-02-20T19:38:28.913Z,22.00
2018-02-20T19:40:57.553Z,22.13
2018-02-20T19:43:25.856Z,21.10
2018-02-20T19:45:53.376Z,22.53
2018-02-20T19:48:21.808Z,21.50
2018-02-20T19:50:49.458Z,19.07
2018-02-20T19:53:18.565Z,19.80
2018-02-20T19:55:47.138Z,20.50
2018-02-20T19:58:15.016Z,22.70
2018-02-20T20:00:42.772Z,22.13
2018-02-20T20:03:11.123Z,22.03
2018-02-20T20:05:39.442Z,22.57
2018-02-20T20:08:07.081Z,22.53
2018-02-20T20:10:34.725Z,21.37
2018-02-20T20:13:02.258Z,22.33
2018-02-20T20:15:29.814Z,20.90
2018-02-20T20:17:58.322Z,22.13
2018-02-20T20:20:25.852Z,22.40
2018-02-20T20:22:54.157Z,23.43
2018-02-20T20:25:21.869Z,24.17
2018-02-20T20:27:49.423Z,24.37
2018-02-20T20:30:16.973Z,23.97
2018-02-20T20:32:44.539Z,24.57
2018-02-20T20:35:12.629Z,23.73
2018-02-20T20:37:40.364Z,24.53
2018-02-20T20:40:08.096Z,24.80
2018-02-20T20:42:35.677Z,23.77
2018-02-20T20:45:03.222Z,24.17
2018-02-20T20:47:31.508Z,24.97
2018-02-20T20:49:59.147Z,26.50
2018-02-20T20:52:27.440Z,23.73
2018-02-20T20:54:55.338Z,24.87
2018-02-20T20:57:23.105Z,24.27
2018-02-20T20:59:51.257Z,24.40
2018-02-20T21:02:19.164Z,25.07
2018-02-20T21:04:46.739Z,24.63
2018-02-20T21:07:14.277Z,26.97
2018-02-20T21:09:42.470Z,25.87
2018-02-20T21:12:10.345Z,26.13
2018-02-20T21:14:37.892Z,25.47
2018-02-20T21:17:05.417Z,26.07
2018-02-20T21:19:32.949Z,26.13
2018-02-20T21:22:01.273Z,26.67
2018-02-20T21:24:29.029Z,27.17
2018-02-20T21:26:56.589Z,27.70
2018-02-20T21:29:24.268Z,26.07
2018-02-20T21:31:51.921Z,26.77
2018-02-20T21:34:20.195Z,27.00
2018-02-20T21:36:49.195Z,26.97
2018-02-20T21:39:17.077Z,23.87
2018-02-20T21:41:45.244Z,26.40
2018-02-20T21:44:12.768Z,27.23
2018-02-20T21:46:40.332Z,28.17
2018-02-20T21:49:07.881Z,25.73
2018-02-20T21:51:35.429Z,27.60
2018-02-20T21:54:03.747Z,26.50
2018-02-20T21:56:31.310Z,27.37
2018-02-20T21:58:59.000Z,24.10
2018-02-20T22:01:26.617Z,29.47
2018-02-20T22:03:54.665Z,29.90
2018-02-20T22:06:27.255Z,30.70
2018-02-20T22:08:55.501Z,29.70
2018-02-20T22:11:23.920Z,30.67
2018-02-20T22:13:51.717Z,31.43
2018-02-20T22:16:19.524Z,29.50
2018-02-20T22:18:48.151Z,31.83
2018-02-20T22:21:17.557Z,28.93
2018-02-20T22:23:45.150Z,33.03
2018-02-20T22:26:12.692Z,31.07
2018-02-20T22:28:40.247Z,30.30
2018-02-20T22:31:07.779Z,31.57
2018-02-20T22:33:35.366Z,33.23
2018-02-20T22:36:02.888Z,34.23
2018-02-20T22:38:30.446Z,34.83
2018-02-20T22:40:59.058Z,33.90
2018-02-20T22:43:26.823Z,34.83
2018-02-20T22:45:54.590Z,33.03
2018-02-20T22:48:22.645Z,32.30
2018-02-20T22:50:51.285Z,33.93
2018-02-20T22:53:19.424Z,33.37
2018-02-20T22:55:48.270Z,34.00
2018-02-20T22:58:17.718Z,32.20
2018-02-20T23:00:46.276Z,33.33
2018-02-20T23:03:13.844Z,34.03
2018-02-20T23:05:41.384Z,33.27
2018-02-20T23:08:09.676Z,33.53
2018-02-20T23:10:37.232Z,34.03
2018-02-20T23:13:04.777Z,34.40
2018-02-20T23:15:33.075Z,33.33
2018-02-20T23:18:00.750Z,33.67
2018-02-20T23:20:28.366Z,33.90
2018-02-20T23:22:56.083Z,33.93
2018-02-20T23:25:23.845Z,33.33
2018-02-20T23:27:51.592Z,35.40
2018-02-20T23:30:19.717Z,34.13
2018-02-20T23:32:48.489Z,34.27
2018-02-20T23:35:17.471Z,34.77
2018-02-20T23:37:45.047Z,34.23
2018-02-20T23:40:12.586Z,36.03
2018-02-20T23:42:40.133Z,33.47
2018-02-20T23:45:07.652Z,34.53
2018-02-20T23:47:35.242Z,33.57
2018-02-20T23:50:02.832Z,36.23
2018-02-20T23:52:30.435Z,33.83
2018-02-20T23:54:58.387Z,36.20
2018-02-20T23:57:26.221Z,36.20
2018-02-20T23:59:54.192Z,35.83
